• Join FlightAware (Why Join?)
  • Login
  • US Flag 
03:46PM EDT


 

Airport Tracker/Info


-or-


 

Live Flight TrackerFlight Track Log ✈ SWA1729 ✈ 13-Apr-2013 ✈ KLAS - KLAX

Flight Track Log - Related Links

Times and Time Zones

All times are in EDT time to prevent confusion due to time zone crossing. See the SWA1729 flight status page for this flight to view local times or setup timezone preferences in your user account.

Time Position Orientation Groundspeed Altitude Reporting Facility
EDT Latitude Longitude Course Direction KTS MPH feet Rate Location/Type
11:45AM 36.0767 -115.1706 270° West 159 183 3,500  Level Los Angeles Center
11:45AM 36.0764 -115.2186 270° West 199 229 5,300 1,800 Climbing Los Angeles Center
11:47AM 36.0214 -115.2764 220° Southwest 259 298 7,000 2,160 Climbing Los Angeles Center
11:48AM 35.9483 -115.3050 198° South 272 313 10,000 2,940 Climbing Los Angeles Center
11:49AM 35.8647 -115.3139 185° South 291 335 13,100 3,000 Climbing Los Angeles Center
11:50AM 35.7700 -115.3047 176° South 329 379 16,200 2,940 Climbing Los Angeles Center
11:51AM 35.6694 -115.3128 184° South 368 423 19,200 2,520 Climbing Los Angeles Center
11:52AM 35.5975 -115.4036 226° Southwest 374 430 21,500 2,280 Climbing Los Angeles Center
11:53AM 35.5244 -115.5022 228° Southwest 383 441 23,900 2,340 Climbing Los Angeles Center
11:54AM 35.4342 -115.6242 228° Southwest 406 467 26,400 2,220 Climbing Los Angeles Center
11:55AM 35.3522 -115.7319 227° Southwest 424 488 28,500 1,980 Climbing Los Angeles Center
11:56AM 35.2708 -115.8400 227° Southwest 431 496 30,600 1,680 Climbing Los Angeles Center
11:57AM 35.1889 -115.9486 227° Southwest 433 498 32,000 660 Climbing Los Angeles Center
11:58AM 35.1050 -116.0606 228° Southwest 441 507 32,000  Level Los Angeles Center
11:59AM 35.0172 -116.1750 227° Southwest 454 522 32,000  Level Los Angeles Center
12:00PM 34.9267 -116.2853 225° Southwest 458 527 32,000  Level Los Angeles Center
12:01PM 34.8256 -116.3844 219° Southwest 462 532 32,000  Level Los Angeles Center
12:02PM 34.7089 -116.5028 220° Southwest 456 525 32,000 -360 Level Los Angeles Center
12:03PM 34.6111 -116.6025 220° Southwest 458 527 31,300 -1,500 Descending Los Angeles Center
12:04PM 34.5136 -116.7006 220° Southwest 454 522 29,000 -2,280 Descending Los Angeles Center
12:05PM 34.4181 -116.7939 219° Southwest 443 510 26,700 -2,280 Descending Los Angeles Center
12:06PM 34.3283 -116.8853 220° Southwest 425 489 24,400 -2,160 Descending Los Angeles Center
12:07PM 34.2419 -116.9714 219° Southwest 407 468 22,300 -2,040 Descending Los Angeles Center
12:08PM 34.1575 -117.0564 220° Southwest 396 456 20,200 -1,920 Descending Los Angeles Center
12:09PM 34.0833 -117.1667 231° Southwest 354 407 18,600 -1,680 Descending Southern California TRACON
12:10PM 34.0500 -117.2500 244° Southwest 328 377 17,200 -1,980 Descending Southern California TRACON
12:11PM 34.0333 -117.3500 259° West 316 364 15,100 -2,160 Descending Southern California TRACON
12:12PM 34.0333 -117.4500 270° West 302 348 13,100 -1,740 Descending Southern California TRACON
12:13PM 34.0333 -117.5500 270° West 279 321 11,700 -1,260 Descending Southern California TRACON
12:15PM 34.0167 -117.7333 264° West 253 291 9,600 -1,140 Descending Southern California TRACON
12:16PM 34.0167 -117.8167 270° West 258 297 8,400 -1,200 Descending Southern California TRACON
12:17PM 34.0000 -117.9000 256° West 258 297 7,300 -1,080 Descending Southern California TRACON
12:18PM 34.0000 -117.9833 270° West 263 303 6,300 -1,020 Descending Southern California TRACON
12:19PM 33.9833 -118.0667 256° West 253 291 5,400 -1,080 Descending Southern California TRACON
12:20PM 33.9833 -118.1500 270° West 242 278 4,200 -1,140 Descending Southern California TRACON
12:21PM 33.9722 -118.2072 257° West 245 282 3,400 -1,260 Descending Los Angeles Center
12:22PM 33.9639 -118.2800 262° West 231 266 2,100 -1,020 Descending Los Angeles Center
12:23PM 33.9592 -118.3342 264° West 188 216 1,300 -840 Descending Los Angeles Center
12:24PM 33.9556 -118.3819 265° West 162 186 500 -540 Descending Los Angeles Center
12:25PM 33.9511 -118.4267 263° West 157 181 200 -300 Descending Los Angeles Center
12:27PM 33.9425 -118.4081 259° West  Level Estimated